Time;durP1;ratioP1;P1;durP2;ratioP2;P2;SDS_P1;SDS_P2;PMS_P1;PMS_P2;Temp;Humidity;BMP_temperature;BMP_pressure;BME280_temperature;BME280_humidity;BME280_pressure;Samples;Min_cycle;Max_cycle;Signal;HPM_P1;HPM_P2
2024/01/28 00:02:16;;;;;;;23.23;8.18;;;;;;;;;;5032970;28;20045;-91
2024/01/28 00:04:44;;;;;;;19.20;7.63;;;;;;;;;;5025466;28;20057;-91
2024/01/28 00:07:11;;;;;;;19.90;7.68;;;;;;;;;;5033231;28;20061;-91
2024/01/28 00:09:39;;;;;;;17.63;7.25;;;;;;;;;;5033127;28;20053;-91
2024/01/28 00:12:06;;;;;;;20.00;7.28;;;;;;;;;;5033099;28;20132;-91
2024/01/28 00:14:34;;;;;;;18.60;7.68;;;;;;;;;;5021557;28;20050;-91
2024/01/28 00:17:02;;;;;;;16.98;7.57;;;;;;;;;;5045193;28;20053;-91
2024/01/28 00:19:29;;;;;;;25.45;7.32;;;;;;;;;;5032984;28;20049;-91
2024/01/28 00:21:57;;;;;;;25.77;8.40;;;;;;;;;;5032743;28;20055;-91
2024/01/28 00:24:24;;;;;;;24.48;9.65;;;;;;;;;;5033169;28;20387;-92
2024/01/28 00:26:52;;;;;;;25.13;8.73;;;;;;;;;;5032706;28;20505;-91
2024/01/28 00:29:26;;;;;;;20.40;8.00;;;;;;;;;;5032909;28;20049;-91
2024/01/28 00:31:53;;;;;;;17.25;6.90;;;;;;;;;;5033276;28;20103;-92
2024/01/28 00:34:21;;;;;;;17.65;7.47;;;;;;;;;;5033050;28;20563;-91
2024/01/28 00:36:48;;;;;;;16.35;6.88;;;;;;;;;;5032683;28;20120;-92
2024/01/28 00:39:16;;;;;;;16.85;7.35;;;;;;;;;;5037081;28;20049;-92
2024/01/28 00:41:43;;;;;;;20.25;7.65;;;;;;;;;;5052081;28;20069;-91
2024/01/28 00:44:11;;;;;;;22.80;7.68;;;;;;;;;;5035797;28;20483;-91
2024/01/28 00:46:38;;;;;;;19.45;7.43;;;;;;;;;;5032678;28;20053;-92
2024/01/28 00:49:05;;;;;;;21.67;7.93;;;;;;;;;;5029023;28;20052;-92
2024/01/28 00:51:33;;;;;;;20.70;7.63;;;;;;;;;;5048981;28;20056;-92
2024/01/28 00:54:01;;;;;;;13.90;7.57;;;;;;;;;;5032345;28;20052;-91
2024/01/28 00:56:28;;;;;;;12.90;6.80;;;;;;;;;;5032563;28;20072;-91
2024/01/28 00:58:56;;;;;;;14.35;6.25;;;;;;;;;;5032848;28;20057;-92
2024/01/28 01:01:23;;;;;;;15.88;6.72;;;;;;;;;;5032238;28;20053;-92
2024/01/28 01:03:50;;;;;;;17.80;7.07;;;;;;;;;;5032246;28;20064;-92
2024/01/28 01:06:18;;;;;;;17.90;5.85;;;;;;;;;;5032553;28;20079;-92
2024/01/28 01:08:46;;;;;;;13.93;6.28;;;;;;;;;;5029111;28;20049;-92
2024/01/28 01:11:14;;;;;;;20.67;7.47;;;;;;;;;;5046527;28;20049;-91
2024/01/28 01:13:41;;;;;;;19.75;7.13;;;;;;;;;;5032564;28;20124;-90
2024/01/28 01:16:08;;;;;;;16.52;5.97;;;;;;;;;;5032639;28;20057;-91
2024/01/28 01:18:36;;;;;;;15.90;6.53;;;;;;;;;;5032094;28;20490;-91
2024/01/28 01:21:04;;;;;;;15.52;6.65;;;;;;;;;;5032078;28;20129;-91
2024/01/28 01:23:32;;;;;;;15.13;6.22;;;;;;;;;;5032179;28;20061;-91
2024/01/28 01:25:59;;;;;;;14.23;5.90;;;;;;;;;;5032011;28;20477;-91
2024/01/28 01:28:31;;;;;;;18.48;6.07;;;;;;;;;;5032239;28;20490;-91
2024/01/28 01:30:59;;;;;;;12.57;6.15;;;;;;;;;;5031784;28;20462;-92
2024/01/28 01:33:27;;;;;;;14.02;6.20;;;;;;;;;;5032311;28;20441;-92
2024/01/28 01:35:54;;;;;;;16.00;5.60;;;;;;;;;;5032057;28;20046;-92
2024/01/28 01:38:22;;;;;;;14.07;5.60;;;;;;;;;;5032318;28;20087;-92
2024/01/28 01:40:50;;;;;;;15.15;5.15;;;;;;;;;;5032265;28;20055;-92
2024/01/28 01:43:18;;;;;;;15.38;6.30;;;;;;;;;;5031985;28;20115;-92
2024/01/28 01:45:46;;;;;;;14.23;5.40;;;;;;;;;;5032358;28;20088;-92
2024/01/28 01:48:13;;;;;;;15.18;5.50;;;;;;;;;;5032314;28;20081;-92
2024/01/28 01:50:42;;;;;;;17.50;6.63;;;;;;;;;;5032826;28;20092;-92
2024/01/28 01:53:10;;;;;;;17.15;6.43;;;;;;;;;;5036885;28;20050;-92
2024/01/28 01:55:39;;;;;;;13.90;6.45;;;;;;;;;;5055037;28;20065;-91
2024/01/28 01:58:08;;;;;;;20.08;5.80;;;;;;;;;;5042171;28;20261;-92
2024/01/28 02:00:36;;;;;;;11.73;5.28;;;;;;;;;;5036925;28;20053;-92
2024/01/28 02:03:04;;;;;;;18.25;5.70;;;;;;;;;;5035931;28;20414;-92
2024/01/28 02:05:32;;;;;;;12.68;5.13;;;;;;;;;;5035479;28;20500;-92
2024/01/28 02:08:00;;;;;;;12.57;5.10;;;;;;;;;;5032575;28;20467;-92
2024/01/28 02:10:28;;;;;;;15.43;5.90;;;;;;;;;;5056549;28;20049;-92
2024/01/28 02:12:55;;;;;;;14.23;5.45;;;;;;;;;;5035648;28;20159;-92
2024/01/28 02:15:23;;;;;;;13.18;4.75;;;;;;;;;;5035314;28;20054;-93
2024/01/28 02:17:52;;;;;;;13.95;4.68;;;;;;;;;;5035088;28;20477;-92
2024/01/28 02:20:20;;;;;;;13.57;5.03;;;;;;;;;;5035280;28;20049;-93
2024/01/28 02:22:48;;;;;;;17.55;5.47;;;;;;;;;;5035073;28;20099;-93
2024/01/28 02:25:16;;;;;;;12.35;5.07;;;;;;;;;;5035078;28;20118;-93
2024/01/28 02:27:46;;;;;;;10.23;5.07;;;;;;;;;;5035597;28;20469;-93
2024/01/28 02:30:14;;;;;;;12.88;4.70;;;;;;;;;;5035728;28;20482;-93
2024/01/28 02:32:48;;;;;;;14.02;5.07;;;;;;;;;;5035510;28;20099;-92
2024/01/28 02:35:16;;;;;;;15.43;4.82;;;;;;;;;;5035116;28;20103;-93
2024/01/28 02:37:44;;;;;;;12.40;5.20;;;;;;;;;;5032058;28;20145;-93
2024/01/28 02:40:12;;;;;;;14.18;5.05;;;;;;;;;;5045543;28;20054;-93
2024/01/28 02:42:39;;;;;;;17.50;4.90;;;;;;;;;;5035180;28;20049;-93
2024/01/28 02:45:07;;;;;;;12.05;4.80;;;;;;;;;;5035336;28;20045;-93
2024/01/28 02:47:35;;;;;;;16.00;4.35;;;;;;;;;;5026953;28;20060;-93
2024/01/28 02:50:03;;;;;;;14.52;4.70;;;;;;;;;;5034697;28;20116;-93
2024/01/28 02:52:30;;;;;;;14.43;4.80;;;;;;;;;;5034902;28;20085;-93
2024/01/28 02:54:58;;;;;;;14.23;5.05;;;;;;;;;;5035479;28;20424;-93
2024/01/28 02:57:25;;;;;;;11.15;4.32;;;;;;;;;;5034537;28;20061;-93
2024/01/28 02:59:53;;;;;;;22.02;5.00;;;;;;;;;;5034690;28;20383;-93
2024/01/28 03:02:20;;;;;;;15.05;4.47;;;;;;;;;;5034622;28;20060;-93
2024/01/28 03:04:48;;;;;;;13.52;4.55;;;;;;;;;;5034091;28;20540;-94
2024/01/28 03:07:16;;;;;;;10.45;4.47;;;;;;;;;;5037143;28;20151;-94
2024/01/28 03:09:43;;;;;;;12.60;4.20;;;;;;;;;;5055840;28;20052;-91
2024/01/28 03:12:11;;;;;;;13.65;4.70;;;;;;;;;;5042374;28;20408;-93
2024/01/28 03:14:41;;;;;;;16.75;5.28;;;;;;;;;;5034384;28;20065;-90
2024/01/28 03:17:09;;;;;;;12.80;4.35;;;;;;;;;;5033803;28;20057;-94
2024/01/28 03:19:36;;;;;;;9.35;4.05;;;;;;;;;;5034096;28;20119;-93
2024/01/28 03:22:04;;;;;;;20.02;5.13;;;;;;;;;;5034057;28;20050;-94
2024/01/28 03:24:31;;;;;;;15.25;4.70;;;;;;;;;;5034166;28;20045;-93
2024/01/28 03:27:00;;;;;;;14.88;4.72;;;;;;;;;;5034167;28;20079;-93
2024/01/28 03:29:27;;;;;;;15.15;4.95;;;;;;;;;;5034056;28;20088;-94
2024/01/28 03:31:55;;;;;;;14.30;4.78;;;;;;;;;;5033941;28;20053;-93
2024/01/28 03:34:23;;;;;;;10.15;4.30;;;;;;;;;;5034040;28;20088;-93
2024/01/28 03:36:50;;;;;;;12.50;4.53;;;;;;;;;;5034263;28;20049;-93
2024/01/28 03:39:18;;;;;;;19.00;4.72;;;;;;;;;;5034111;28;20049;-93
2024/01/28 03:41:45;;;;;;;9.80;4.35;;;;;;;;;;5033770;28;20053;-94
2024/01/28 03:44:19;;;;;;;17.88;4.90;;;;;;;;;;5033792;28;20490;-94
2024/01/28 03:46:46;;;;;;;11.85;5.25;;;;;;;;;;5030178;28;20057;-93
2024/01/28 03:49:14;;;;;;;10.27;4.50;;;;;;;;;;5044973;28;20482;-94
2024/01/28 03:51:42;;;;;;;8.05;3.97;;;;;;;;;;5033928;28;20045;-94
2024/01/28 03:54:09;;;;;;;19.80;4.38;;;;;;;;;;5033518;28;20425;-93
2024/01/28 03:56:37;;;;;;;12.50;4.18;;;;;;;;;;5033453;28;20046;-94
2024/01/28 03:59:04;;;;;;;13.52;4.20;;;;;;;;;;5033885;28;20497;-94
2024/01/28 04:01:35;;;;;;;11.40;3.67;;;;;;;;;;5034067;28;20111;-94
2024/01/28 04:04:03;;;;;;;13.00;4.65;;;;;;;;;;5033858;28;20049;-91
2024/01/28 04:06:31;;;;;;;9.20;4.22;;;;;;;;;;5035597;28;20050;-94
2024/01/28 04:09:00;;;;;;;15.18;4.57;;;;;;;;;;5034576;28;20049;-94
2024/01/28 04:11:29;;;;;;;10.27;4.20;;;;;;;;;;5034068;28;20142;-94
2024/01/28 04:13:56;;;;;;;18.67;5.20;;;;;;;;;;5034011;28;20375;-92
2024/01/28 04:16:26;;;;;;;13.23;4.53;;;;;;;;;;5034004;28;20053;-94
2024/01/28 04:18:54;;;;;;;16.25;4.68;;;;;;;;;;5034512;28;20049;-94
2024/01/28 04:21:23;;;;;;;17.00;4.25;;;;;;;;;;5036394;28;20050;-94
2024/01/28 04:23:51;;;;;;;16.75;4.82;;;;;;;;;;5054702;28;20068;-92
2024/01/28 04:26:19;;;;;;;10.48;4.00;;;;;;;;;;5042246;28;20053;-93
2024/01/28 04:28:47;;;;;;;14.95;4.32;;;;;;;;;;5034118;28;20107;-92
2024/01/28 04:31:14;;;;;;;19.90;5.45;;;;;;;;;;5033673;28;20054;-91
2024/01/28 04:33:42;;;;;;;18.75;6.00;;;;;;;;;;5034772;28;20099;-93
2024/01/28 04:36:10;;;;;;;13.32;4.75;;;;;;;;;;5033779;28;20053;-94
2024/01/28 04:38:38;;;;;;;15.23;5.22;;;;;;;;;;5033644;28;20472;-91
2024/01/28 04:41:05;;;;;;;18.60;6.07;;;;;;;;;;5033271;28;20512;-94
2024/01/28 04:43:34;;;;;;;10.00;5.00;;;;;;;;;;5034080;28;20045;-94
2024/01/28 04:46:02;;;;;;;13.50;4.45;;;;;;;;;;5033844;28;20064;-91
2024/01/28 04:48:29;;;;;;;20.40;6.95;;;;;;;;;;5033919;28;20061;-92
2024/01/28 04:50:57;;;;;;;13.65;5.82;;;;;;;;;;5035020;28;20055;-91
2024/01/28 04:53:24;;;;;;;14.90;6.03;;;;;;;;;;5034581;28;20072;-91
2024/01/28 04:55:52;;;;;;;15.65;5.50;;;;;;;;;;5031012;28;20057;-94
2024/01/28 04:58:19;;;;;;;12.93;4.70;;;;;;;;;;5050056;28;20076;-94
2024/01/28 05:00:54;;;;;;;12.07;5.32;;;;;;;;;;5035744;28;20053;-91
2024/01/28 05:03:22;;;;;;;14.93;5.38;;;;;;;;;;5034669;28;20735;-91
2024/01/28 05:05:50;;;;;;;10.45;6.05;;;;;;;;;;5032021;28;20141;-91
2024/01/28 05:08:19;;;;;;;13.07;6.03;;;;;;;;;;5048804;28;20104;-94
2024/01/28 05:10:48;;;;;;;16.92;7.15;;;;;;;;;;5032860;28;20117;-94
2024/01/28 05:13:16;;;;;;;15.20;5.97;;;;;;;;;;5048538;28;20058;-94
2024/01/28 05:15:43;;;;;;;15.82;5.45;;;;;;;;;;5036671;28;20485;-91
2024/01/28 05:18:12;;;;;;;13.07;5.18;;;;;;;;;;5035057;28;20054;-94
2024/01/28 05:20:40;;;;;;;14.77;5.05;;;;;;;;;;5033572;28;20070;-94
2024/01/28 05:23:09;;;;;;;7.25;4.45;;;;;;;;;;5013398;28;20049;-94
2024/01/28 05:25:41;;;;;;;9.47;5.83;;;;;;;;;;5030731;28;20375;-94
2024/01/28 05:28:10;;;;;;;18.70;6.25;;;;;;;;;;5030590;28;20085;-94
2024/01/28 05:30:45;;;;;;;20.52;10.32;;;;;;;;;;5041953;28;20080;-94
2024/01/28 05:33:14;;;;;;;18.80;10.40;;;;;;;;;;5040479;28;20057;-93
2024/01/28 05:35:42;;;;;;;27.35;8.88;;;;;;;;;;5041499;28;20042;-93
2024/01/28 05:38:12;;;;;;;18.80;8.30;;;;;;;;;;5072484;28;20045;-91
2024/01/28 05:40:41;;;;;;;16.45;6.43;;;;;;;;;;5045668;28;20053;-94
2024/01/28 05:43:08;;;;;;;17.52;5.75;;;;;;;;;;5027343;28;20063;-93
2024/01/28 05:45:39;;;;;;;11.80;6.00;;;;;;;;;;5033706;28;20133;-93
2024/01/28 05:48:07;;;;;;;19.67;6.63;;;;;;;;;;5016938;28;20050;-93
2024/01/28 05:50:35;;;;;;;17.88;7.15;;;;;;;;;;5034020;28;20107;-93
2024/01/28 05:53:03;;;;;;;19.05;7.30;;;;;;;;;;5039279;28;20056;-93
2024/01/28 05:55:31;;;;;;;21.08;8.35;;;;;;;;;;5041188;28;20601;-94
2024/01/28 05:58:00;;;;;;;25.58;10.32;;;;;;;;;;5042514;28;20061;-93
2024/01/28 06:00:28;;;;;;;25.42;8.82;;;;;;;;;;5041168;28;20050;-93
2024/01/28 06:02:55;;;;;;;19.55;7.78;;;;;;;;;;5036870;28;20465;-94
2024/01/28 06:05:23;;;;;;;20.05;7.63;;;;;;;;;;5054887;28;20053;-94
2024/01/28 06:07:50;;;;;;;22.27;9.13;;;;;;;;;;5040753;28;20053;-93
2024/01/28 06:10:19;;;;;;;22.60;8.80;;;;;;;;;;5040312;28;20053;-93
2024/01/28 06:12:46;;;;;;;18.50;7.95;;;;;;;;;;5038625;28;20054;-93
2024/01/28 06:15:14;;;;;;;16.00;8.13;;;;;;;;;;5038402;28;20068;-94
2024/01/28 06:17:42;;;;;;;20.80;8.18;;;;;;;;;;5039743;28;20058;-93
2024/01/28 06:20:12;;;;;;;21.35;8.05;;;;;;;;;;5039691;28;20452;-93
2024/01/28 06:22:40;;;;;;;26.30;7.55;;;;;;;;;;5039775;28;20053;-93
2024/01/28 06:25:09;;;;;;;22.38;8.55;;;;;;;;;;5038896;28;20050;-93
2024/01/28 06:27:38;;;;;;;20.60;7.82;;;;;;;;;;5031022;28;20465;-93
2024/01/28 06:30:06;;;;;;;17.45;6.05;;;;;;;;;;5039573;28;20051;-93
2024/01/28 06:32:40;;;;;;;18.30;5.80;;;;;;;;;;5031556;28;20118;-93
2024/01/28 06:35:09;;;;;;;14.10;5.03;;;;;;;;;;5037343;28;20057;-93
2024/01/28 06:37:37;;;;;;;15.95;5.40;;;;;;;;;;5035331;28;20053;-93
2024/01/28 06:40:04;;;;;;;17.40;5.40;;;;;;;;;;5030360;28;20568;-93
2024/01/28 06:42:32;;;;;;;17.05;6.53;;;;;;;;;;5051032;28;20448;-93
2024/01/28 06:45:01;;;;;;;15.88;5.25;;;;;;;;;;5035497;28;20081;-93
2024/01/28 06:47:28;;;;;;;14.30;6.00;;;;;;;;;;5035600;28;20476;-91
2024/01/28 06:49:55;;;;;;;10.68;5.10;;;;;;;;;;5035600;28;20071;-94
2024/01/28 06:52:23;;;;;;;13.40;5.25;;;;;;;;;;5047936;28;20041;-93
2024/01/28 06:54:50;;;;;;;13.00;5.15;;;;;;;;;;5054338;28;20061;-93
2024/01/28 06:57:19;;;;;;;14.77;6.20;;;;;;;;;;5036272;28;20053;-94
2024/01/28 06:59:47;;;;;;;13.25;4.47;;;;;;;;;;5016817;28;20046;-93
2024/01/28 07:02:16;;;;;;;12.00;5.22;;;;;;;;;;5051447;28;20045;-95
2024/01/28 07:04:43;;;;;;;13.10;5.78;;;;;;;;;;5031754;28;20050;-93
2024/01/28 07:07:11;;;;;;;18.55;7.55;;;;;;;;;;5044833;28;20458;-94
2024/01/28 07:09:39;;;;;;;14.55;5.18;;;;;;;;;;5035321;28;20076;-93
2024/01/28 07:12:08;;;;;;;15.50;4.85;;;;;;;;;;5035372;28;20474;-94
2024/01/28 07:14:36;;;;;;;16.40;5.10;;;;;;;;;;5027424;28;20133;-92
2024/01/28 07:17:04;;;;;;;13.05;5.65;;;;;;;;;;5035085;28;20111;-94
2024/01/28 07:19:33;;;;;;;18.33;6.57;;;;;;;;;;5034138;28;20057;-94
2024/01/28 07:22:00;;;;;;;13.10;5.85;;;;;;;;;;5033368;28;20065;-93
2024/01/28 07:24:28;;;;;;;17.98;8.38;;;;;;;;;;5033483;28;20042;-93
2024/01/28 07:26:56;;;;;;;24.83;11.98;;;;;;;;;;5034301;28;20104;-93
2024/01/28 07:29:23;;;;;;;34.72;14.07;;;;;;;;;;5036959;28;20050;-93
2024/01/28 07:31:52;;;;;;;42.25;18.02;;;;;;;;;;5041281;28;20111;-90
2024/01/28 07:34:22;;;;;;;33.58;14.75;;;;;;;;;;5034147;28;20054;-91
2024/01/28 07:36:54;;;;;;;29.65;12.00;;;;;;;;;;5030570;28;20057;-93
2024/01/28 07:39:21;;;;;;;21.45;11.00;;;;;;;;;;5047345;28;20137;-93
2024/01/28 07:41:48;;;;;;;24.88;10.80;;;;;;;;;;5033709;28;20063;-93
2024/01/28 07:44:16;;;;;;;25.08;10.77;;;;;;;;;;5033748;28;20061;-93
2024/01/28 07:46:44;;;;;;;26.98;9.02;;;;;;;;;;5034024;28;20495;-93
2024/01/28 07:49:11;;;;;;;19.00;8.35;;;;;;;;;;5034655;28;20049;-94
2024/01/28 07:51:39;;;;;;;18.00;8.05;;;;;;;;;;5034022;28;20056;-93
2024/01/28 07:54:06;;;;;;;16.77;7.15;;;;;;;;;;5033817;28;20144;-93
2024/01/28 07:56:34;;;;;;;18.45;7.40;;;;;;;;;;5033749;28;20053;-93
2024/01/28 07:59:01;;;;;;;13.30;6.40;;;;;;;;;;5034121;28;20062;-93
2024/01/28 08:01:30;;;;;;;16.10;6.75;;;;;;;;;;5034077;28;20068;-92
2024/01/28 08:03:57;;;;;;;21.25;6.72;;;;;;;;;;5034034;28;20060;-93
2024/01/28 08:06:26;;;;;;;13.88;6.80;;;;;;;;;;5040623;28;20060;-93
2024/01/28 08:08:54;;;;;;;16.50;7.05;;;;;;;;;;5056388;28;20036;-92
2024/01/28 08:11:21;;;;;;;17.48;7.75;;;;;;;;;;5034231;28;20539;-93
2024/01/28 08:13:49;;;;;;;17.95;6.88;;;;;;;;;;5033362;28;20468;-93
2024/01/28 08:16:17;;;;;;;16.67;8.73;;;;;;;;;;5033252;28;20100;-93
2024/01/28 08:18:45;;;;;;;29.65;13.85;;;;;;;;;;5033333;28;20058;-94
2024/01/28 08:21:13;;;;;;;32.25;15.10;;;;;;;;;;5033708;28;20045;-93
2024/01/28 08:23:41;;;;;;;28.60;11.98;;;;;;;;;;5033513;28;20140;-93
2024/01/28 08:26:08;;;;;;;14.43;8.88;;;;;;;;;;5034466;28;20478;-93
2024/01/28 08:28:36;;;;;;;18.45;7.43;;;;;;;;;;5032989;28;20061;-93
2024/01/28 08:31:03;;;;;;;20.10;8.45;;;;;;;;;;5033217;28;20386;-93
2024/01/28 08:33:31;;;;;;;21.90;8.57;;;;;;;;;;5033194;28;20159;-93
2024/01/28 08:35:59;;;;;;;24.20;10.35;;;;;;;;;;5033032;28;20072;-93
2024/01/28 08:38:26;;;;;;;24.65;10.90;;;;;;;;;;5038459;28;20060;-93
2024/01/28 08:41:07;;;;;;;19.98;8.90;;;;;;;;;;5031823;28;20072;-93
2024/01/28 08:43:35;;;;;;;28.90;12.30;;;;;;;;;;5037979;28;20108;-93
2024/01/28 08:46:03;;;;;;;29.10;12.25;;;;;;;;;;5028632;28;20099;-93
2024/01/28 08:48:31;;;;;;;15.25;7.88;;;;;;;;;;5033278;28;20517;-93
2024/01/28 08:50:58;;;;;;;23.60;7.95;;;;;;;;;;5032944;28;20050;-92
2024/01/28 08:53:26;;;;;;;17.02;7.57;;;;;;;;;;5034191;28;20064;-93
2024/01/28 08:55:54;;;;;;;21.67;8.30;;;;;;;;;;5033093;28;20061;-93
2024/01/28 08:58:30;;;;;;;17.67;7.90;;;;;;;;;;5035283;28;20053;-93
2024/01/28 09:01:02;;;;;;;19.67;7.95;;;;;;;;;;5028275;28;20058;-93
2024/01/28 09:03:30;;;;;;;18.05;7.28;;;;;;;;;;5034941;28;20125;-93
2024/01/28 09:06:00;;;;;;;12.68;6.30;;;;;;;;;;5031393;28;20060;-93
2024/01/28 09:08:33;;;;;;;16.90;7.25;;;;;;;;;;5051024;28;20059;-93
2024/01/28 09:11:03;;;;;;;35.85;13.27;;;;;;;;;;5033095;28;20057;-93
2024/01/28 09:13:31;;;;;;;24.50;10.75;;;;;;;;;;5033098;28;20136;-93
2024/01/28 09:15:58;;;;;;;28.85;9.98;;;;;;;;;;5033247;28;20057;-93
2024/01/28 09:18:26;;;;;;;20.52;7.70;;;;;;;;;;5039024;28;20113;-93
2024/01/28 09:20:53;;;;;;;21.70;8.30;;;;;;;;;;5040077;28;20050;-93
2024/01/28 09:23:21;;;;;;;16.13;7.00;;;;;;;;;;5052493;28;20053;-93
2024/01/28 09:25:48;;;;;;;20.35;7.40;;;;;;;;;;5034953;28;20049;-93
2024/01/28 09:28:15;;;;;;;22.50;8.98;;;;;;;;;;5032291;28;20050;-93
2024/01/28 09:30:43;;;;;;;25.45;10.52;;;;;;;;;;5032219;28;20049;-93
2024/01/28 09:33:11;;;;;;;26.20;10.45;;;;;;;;;;5032426;28;20046;-93
2024/01/28 09:35:39;;;;;;;20.05;8.77;;;;;;;;;;5032397;28;20057;-93
2024/01/28 09:38:14;;;;;;;20.67;10.50;;;;;;;;;;5037822;28;20056;-92
2024/01/28 09:40:41;;;;;;;26.50;12.32;;;;;;;;;;5032260;28;20556;-93
2024/01/28 09:43:25;;;;;;;25.10;9.90;;;;;;;;;;5031947;28;20049;-92
2024/01/28 09:45:54;;;;;;;22.27;10.15;;;;;;;;;;5031987;28;20636;-92
2024/01/28 09:48:21;;;;;;;22.13;8.18;;;;;;;;;;5032417;28;20087;-92
2024/01/28 09:50:49;;;;;;;17.15;8.13;;;;;;;;;;5032098;28;20053;-92
2024/01/28 09:53:16;;;;;;;29.40;13.82;;;;;;;;;;5032859;28;20425;-92
2024/01/28 09:55:44;;;;;;;102.90;18.52;;;;;;;;;;5031203;28;20062;-92
2024/01/28 09:58:11;;;;;;;32.45;10.80;;;;;;;;;;5031960;28;20064;-91
2024/01/28 10:00:40;;;;;;;34.05;23.63;;;;;;;;;;5032253;28;20053;-91
2024/01/28 10:03:09;;;;;;;62.67;49.05;;;;;;;;;;5032943;28;20049;-91
2024/01/28 10:05:37;;;;;;;24.70;11.55;;;;;;;;;;5024070;28;20049;-90
2024/01/28 10:08:05;;;;;;;20.90;11.65;;;;;;;;;;5031428;28;20049;-91
2024/01/28 10:10:35;;;;;;;10.10;5.38;;;;;;;;;;5031887;28;20100;-90
2024/01/28 10:13:03;;;;;;;10.85;4.90;;;;;;;;;;5031565;28;20051;-90
2024/01/28 10:15:33;;;;;;;7.40;2.78;;;;;;;;;;5035305;28;20057;-89
2024/01/28 10:18:01;;;;;;;3.30;1.77;;;;;;;;;;5036345;28;20123;-87
2024/01/28 10:20:29;;;;;;;3.75;1.52;;;;;;;;;;5035168;28;20060;-86
2024/01/28 10:22:57;;;;;;;4.45;2.58;;;;;;;;;;5034950;28;20057;-87
2024/01/28 10:25:25;;;;;;;6.53;2.15;;;;;;;;;;5034945;28;20053;-87
2024/01/28 10:27:53;;;;;;;4.45;1.88;;;;;;;;;;5035149;28;20482;-87
2024/01/28 10:30:20;;;;;;;3.50;1.63;;;;;;;;;;5036143;28;20392;-87
2024/01/28 10:32:47;;;;;;;2.75;1.67;;;;;;;;;;5034657;28;20137;-87
2024/01/28 10:35:18;;;;;;;4.45;1.85;;;;;;;;;;5037311;28;20049;-87
2024/01/28 10:37:52;;;;;;;4.05;1.60;;;;;;;;;;5036454;28;20052;-87
2024/01/28 10:40:19;;;;;;;3.33;1.52;;;;;;;;;;5036228;28;20045;-87
2024/01/28 10:42:49;;;;;;;4.22;1.77;;;;;;;;;;5035727;28;20049;-87
2024/01/28 10:45:19;;;;;;;2.67;1.60;;;;;;;;;;5034354;28;20049;-86
2024/01/28 10:47:56;;;;;;;4.63;1.30;;;;;;;;;;5034320;28;20498;-86
2024/01/28 10:50:25;;;;;;;4.72;2.40;;;;;;;;;;5035686;28;20128;-87
2024/01/28 10:52:52;;;;;;;5.40;3.42;;;;;;;;;;5034919;28;20053;-87
2024/01/28 10:55:22;;;;;;;3.15;1.90;;;;;;;;;;5034116;28;20128;-87
2024/01/28 10:57:49;;;;;;;1.52;1.05;;;;;;;;;;5035948;28;20060;-89
2024/01/28 11:00:20;;;;;;;2.80;1.23;;;;;;;;;;5034519;28;20050;-89
2024/01/28 11:02:49;;;;;;;2.85;0.93;;;;;;;;;;5034443;28;20422;-89
2024/01/28 11:05:17;;;;;;;1.75;0.90;;;;;;;;;;5035451;28;20055;-89
2024/01/28 11:07:44;;;;;;;1.15;0.90;;;;;;;;;;5031276;28;20061;-87
2024/01/28 11:10:15;;;;;;;2.13;0.88;;;;;;;;;;5044400;28;20042;-87
2024/01/28 11:12:42;;;;;;;1.05;0.90;;;;;;;;;;5027003;28;20211;-86
2024/01/28 11:15:13;;;;;;;3.38;1.25;;;;;;;;;;5034961;28;20046;-86
2024/01/28 11:17:40;;;;;;;1.63;0.98;;;;;;;;;;5034419;28;20492;-87
2024/01/28 11:20:08;;;;;;;5.28;0.90;;;;;;;;;;5034110;28;20046;-86
2024/01/28 11:22:56;;;;;;;1.50;0.90;;;;;;;;;;5026323;28;20060;-87
2024/01/28 11:25:24;;;;;;;1.88;0.88;;;;;;;;;;5032633;28;20406;-86
2024/01/28 11:27:52;;;;;;;1.85;1.45;;;;;;;;;;5034391;28;20056;-86
2024/01/28 11:30:23;;;;;;;1.77;0.80;;;;;;;;;;5033378;28;20477;-86
2024/01/28 11:32:52;;;;;;;2.67;0.80;;;;;;;;;;5030515;28;20064;-86
2024/01/28 11:35:19;;;;;;;2.47;1.10;;;;;;;;;;5046303;28;20050;-87
2024/01/28 11:37:56;;;;;;;1.25;0.90;;;;;;;;;;5033580;28;20053;-87
2024/01/28 11:40:35;;;;;;;1.90;0.77;;;;;;;;;;5034666;28;20053;-87
2024/01/28 11:43:04;;;;;;;1.15;0.60;;;;;;;;;;5030177;28;20419;-87
2024/01/28 11:45:32;;;;;;;1.40;0.80;;;;;;;;;;5049928;28;20041;-85
2024/01/28 11:48:05;;;;;;;2.25;0.82;;;;;;;;;;5040886;28;20049;-86
2024/01/28 11:50:32;;;;;;;1.73;0.65;;;;;;;;;;5041271;28;20139;-86
2024/01/28 11:52:59;;;;;;;2.13;0.70;;;;;;;;;;5033401;28;20107;-86
2024/01/28 11:55:27;;;;;;;1.85;0.80;;;;;;;;;;5032999;28;20057;-86
2024/01/28 11:57:54;;;;;;;0.90;0.73;;;;;;;;;;5033158;28;20539;-86
2024/01/28 12:00:22;;;;;;;2.85;2.65;;;;;;;;;;5033918;28;20107;-85
2024/01/28 12:02:49;;;;;;;1.00;0.70;;;;;;;;;;5029312;28;20073;-88
2024/01/28 12:05:17;;;;;;;1.67;0.70;;;;;;;;;;5044759;28;20054;-86
2024/01/28 12:07:46;;;;;;;1.83;0.60;;;;;;;;;;5033010;28;20506;-86
2024/01/28 12:10:14;;;;;;;2.22;1.10;;;;;;;;;;5033977;28;20136;-86
2024/01/28 12:12:41;;;;;;;2.05;0.85;;;;;;;;;;5032954;28;20061;-86
2024/01/28 12:15:09;;;;;;;1.70;0.88;;;;;;;;;;5032829;28;20490;-86
2024/01/28 12:17:40;;;;;;;1.38;0.77;;;;;;;;;;5026137;28;20057;-86
2024/01/28 12:20:18;;;;;;;2.05;0.80;;;;;;;;;;5032707;28;20099;-87
2024/01/28 12:22:46;;;;;;;2.33;0.63;;;;;;;;;;5036155;28;20133;-86
2024/01/28 12:25:13;;;;;;;0.85;0.70;;;;;;;;;;5032553;28;20139;-87
2024/01/28 12:27:41;;;;;;;2.70;0.70;;;;;;;;;;5032413;28;20103;-87
2024/01/28 12:30:11;;;;;;;3.33;0.80;;;;;;;;;;5031909;28;20045;-86
2024/01/28 12:32:39;;;;;;;0.68;0.63;;;;;;;;;;5025240;28;20052;-86
2024/01/28 12:35:09;;;;;;;2.33;0.70;;;;;;;;;;5032735;28;20103;-88
2024/01/28 12:37:38;;;;;;;0.80;0.80;;;;;;;;;;5024094;28;20099;-86
2024/01/28 12:40:10;;;;;;;2.80;1.25;;;;;;;;;;5033399;28;20046;-86
2024/01/28 12:42:40;;;;;;;1.90;1.70;;;;;;;;;;5033242;28;20055;-86
2024/01/28 12:45:08;;;;;;;2.08;1.38;;;;;;;;;;5028984;28;20046;-86
2024/01/28 12:47:40;;;;;;;2.13;1.20;;;;;;;;;;5041203;28;20053;-87
2024/01/28 12:50:08;;;;;;;1.88;1.10;;;;;;;;;;5032235;28;20099;-86
2024/01/28 12:52:35;;;;;;;2.92;1.23;;;;;;;;;;5024663;28;20049;-87
2024/01/28 12:55:05;;;;;;;1.98;1.30;;;;;;;;;;5031948;28;20057;-87
2024/01/28 12:57:35;;;;;;;2.88;1.25;;;;;;;;;;5032477;28;20137;-86
2024/01/28 13:00:06;;;;;;;1.92;0.90;;;;;;;;;;5029390;28;20042;-87
2024/01/28 13:02:34;;;;;;;2.88;0.90;;;;;;;;;;5061679;28;20046;-86
2024/01/28 13:05:01;;;;;;;4.60;1.20;;;;;;;;;;5034022;28;20494;-86
2024/01/28 13:07:29;;;;;;;2.17;0.90;;;;;;;;;;5048029;28;20047;-86
2024/01/28 13:09:57;;;;;;;0.63;0.60;;;;;;;;;;5033008;28;20053;-87
2024/01/28 13:12:24;;;;;;;3.13;0.80;;;;;;;;;;5032337;28;20132;-86
2024/01/28 13:14:52;;;;;;;1.10;0.70;;;;;;;;;;5031872;28;20049;-87
2024/01/28 13:17:19;;;;;;;1.77;0.93;;;;;;;;;;5032998;28;20563;-86
2024/01/28 13:19:50;;;;;;;2.83;0.90;;;;;;;;;;5032661;28;20552;-86
2024/01/28 13:22:17;;;;;;;1.35;0.93;;;;;;;;;;5024054;28;20054;-87
2024/01/28 13:24:45;;;;;;;1.65;0.88;;;;;;;;;;5033250;28;20045;-87
2024/01/28 13:27:13;;;;;;;3.95;1.10;;;;;;;;;;5032885;28;20132;-88
2024/01/28 13:29:40;;;;;;;1.88;0.90;;;;;;;;;;5032256;28;20053;-86
2024/01/28 13:32:08;;;;;;;2.33;1.40;;;;;;;;;;5032787;28;20438;-86
2024/01/28 13:34:36;;;;;;;1.85;1.42;;;;;;;;;;5023995;28;20041;-86
2024/01/28 13:37:03;;;;;;;2.15;1.10;;;;;;;;;;5032181;28;20053;-87
2024/01/28 13:39:31;;;;;;;3.03;1.30;;;;;;;;;;5033293;28;20486;-87
2024/01/28 13:41:58;;;;;;;1.95;1.00;;;;;;;;;;5028802;28;20133;-86
2024/01/28 13:44:25;;;;;;;3.65;1.15;;;;;;;;;;5039306;28;20490;-88
2024/01/28 13:46:53;;;;;;;3.13;1.13;;;;;;;;;;5023427;28;20046;-87
2024/01/28 13:49:24;;;;;;;1.23;0.85;;;;;;;;;;5034360;28;20111;-86
2024/01/28 13:51:52;;;;;;;2.88;1.40;;;;;;;;;;5035927;28;20049;-86
2024/01/28 13:54:20;;;;;;;1.35;1.05;;;;;;;;;;5036630;28;20068;-86
2024/01/28 13:56:47;;;;;;;2.20;1.10;;;;;;;;;;5036595;28;20132;-87
2024/01/28 13:59:16;;;;;;;1.55;1.30;;;;;;;;;;5035556;28;20077;-86
2024/01/28 14:01:44;;;;;;;4.93;1.00;;;;;;;;;;5035646;28;20053;-86
2024/01/28 14:04:11;;;;;;;1.25;0.90;;;;;;;;;;5035306;28;20045;-86
2024/01/28 14:06:38;;;;;;;3.45;0.98;;;;;;;;;;5036630;28;20105;-86
2024/01/28 14:09:07;;;;;;;1.33;1.10;;;;;;;;;;5036383;28;20056;-87
2024/01/28 14:11:34;;;;;;;2.70;1.10;;;;;;;;;;5035544;28;20498;-86
2024/01/28 14:14:04;;;;;;;1.75;1.27;;;;;;;;;;5035867;28;20056;-86
2024/01/28 14:16:31;;;;;;;1.63;0.93;;;;;;;;;;5047019;28;20564;-87
2024/01/28 14:18:58;;;;;;;3.58;1.30;;;;;;;;;;5037463;28;20050;-86
2024/01/28 14:21:28;;;;;;;0.82;0.80;;;;;;;;;;5035248;28;20084;-86
2024/01/28 14:23:56;;;;;;;2.95;0.80;;;;;;;;;;5031290;28;20077;-86
2024/01/28 14:26:23;;;;;;;2.70;0.93;;;;;;;;;;5048102;28;20108;-86
2024/01/28 14:28:54;;;;;;;2.75;1.02;;;;;;;;;;5034591;28;20049;-86
2024/01/28 14:31:24;;;;;;;1.45;1.20;;;;;;;;;;5035346;28;20527;-86
2024/01/28 14:33:53;;;;;;;2.20;1.10;;;;;;;;;;5035852;28;20129;-86
2024/01/28 14:36:20;;;;;;;2.60;1.00;;;;;;;;;;5035068;28;20137;-86
2024/01/28 14:38:48;;;;;;;3.45;1.40;;;;;;;;;;5034985;28;20041;-86
2024/01/28 14:41:16;;;;;;;2.90;1.17;;;;;;;;;;5035884;28;20426;-87